Terminal Aerodrome Forecast
Issued by NWS

Home | Current Version | Previous Version | Text Only | Print | Product List | Glossary On
Versions: 1 2 3 4 5 6 7 8 9 10 11 12 13 14 15 16 17 18 19 20 21 22 23 24 25 26 27 28 29 30 31 32
000
FTUS44 KFWD 051125
TAFAFW
TAF
KAFW 051125Z 0512/0612 02008KT P6SM BKN018
      TEMPO 0512/0514 SCT020 BKN120
     FM051600 06007KT 4SM -RA BR OVC016
     FM052200 04004KT 3SM -RA BR OVC008
     FM060300 VRB04KT 2SM -DZ BR OVC005
      TEMPO 0604/0608 3/4SM BR OVC002=

USA.gov is the U.S. government's official web portal to all federal, state and local government web resources and services.